Wabash, Indiana
Current Conditions -  °F | °C
As of 7:15 AM on Friday 24 Oct 2014 (Local Time) from KHHG Reporting Station
Overcast Overcast  
Wind Chill: 41°   Ceiling: 9000
Heat Index: 41°   Visibility: 10mi
Dew Point: 40°   Wind: 0mph
Humidity: 94%   Direction: NA
Pressure: 30.09"   Gusts: NA
Location:  40.8°N, 85.82°W
Report Text: KHHG 241115Z AUTO 00000KT 10SM SCT070 OVC090 05/04 A3009 RMK AO2 T00520043
Loading
Personal Weather Stations






























Interactive Weather Map
Tropical Storm Tracking
New forecast layout! Learn more

10-Day Weather Forecast

Advertisements
Track Severe Weather on mobile